首页
METAR-TAF:

METAR-TAF

机场 :

洛雷托, 墨西哥

纬度: 26-01N, 经度: 111-21W, 海拔: 15米

当前天气观测

该预报发布于1小时和20分钟前的23:40 UTC
风速10节,风向东北
温度 33°C
湿度 56%
气压 1009 hPa
能見度: 12.9公里
天空无云

METAR: MMLT 152340Z 05010KT 8SM SKC 33/23 A2981 RMK SLP095 HZY

时间: 19:00 (01:00 UTC)

预报

该预报发布于8小时和5分钟前的16:55 UTC
预报有效从15日的 18点(UTC)到 16日的 18点(UTC)
风速10节,风向东南
能見度: 10公里
散云层高于3000英尺
散云层高于20000英尺
从 15日的 2100点(UTC)
风速10节,风向东南
能見度: 10公里
散云层高于3000英尺, 积雨云.
多云层高于20000英尺
附近有, 小雨
短暂存在
从 15日的 21点(UTC)到 15日的 23点(UTC)
能見度: 8.0公里
多云层高于3000英尺, 积雨云.
从 16日的 0000点(UTC)
风速10节,风向东南
能見度: 10公里
散云层高于3000英尺
多云层高于15000英尺
从 16日的 0600点(UTC)
风速节,风向
能見度: 10公里
天空无云
从 16日的 1200点(UTC)
风速节,风向
能見度: 10公里
散云层高于2000英尺

TAF: MMLT 151655Z 1518/1618 14010KT P6SM SCT030 SCT200 FM152100 13010KT P6SM VC -RA SCT030CB BKN200 TEMPO 1521/1523 5SM RA BKN030CB FM160000 14010KT P6SM SCT030 BKN150 FM160600 00000KT P6SM SKC FM161200 00000KT P6SM SCT020

超过4000个机场的气象观测和天气预报(METAR&TAF报告)。

可查询的气象台以黄色和红色小点在地图上表示。

将鼠标移到小点上方,可查看气象台名称。

然后点击查看天气观测和预报。

如需切换地图:点击带黑十字的绿色按钮放大地图;点击带横线的绿色按钮缩小地图;或者点击绿色箭头查看邻近地区的地图。


METAR-TAF: